Flugmeteorologie

  • METAR LHSM 151345Z 34013KT 8000 BKN011 BKN040 M00/M01 Q1020 RESN=
  • METAR LHSM 151315Z 34011KT 6000 -SN BKN011 BKN040 M01/M01 Q1020=
  • METAR LHSM 151245Z 35011KT 3500 -SN BKN010 BKN033 M00/M01 Q1020=
  • METAR LHSM 151215Z 35014KT 4500 -SN BKN011 BKN040 M00/M02 Q1020=
  • METAR LHSM 151145Z 33012KT 6000 -SN BKN010 BKN040 M01/M01 Q1020=

  • TAF LHSM 141115Z 1412/1421 36008KT 3000 -SN BR BKN010 OVC025
  • TAF LHSM 140815Z 1409/1418 01007KT 3000 BR OVC010
  • TAF LHSM 140515Z 1406/1415 05005KT 7000 NSC
  • TAF LHSM 131115Z 1312/1321 VRB03KT 9999 FEW005 BKN030
  • TAF LHSM 130815Z 1309/1318 VRB03KT 5000 BR BKN010